sensor_id;sensor_type;location;lat;lon;timestamp;temperature;humidity
72128;DHT22;60000;51.030;7.024;2023-06-22T01:03:29;21.94;59.75
72128;DHT22;60000;51.030;7.024;2023-06-22T01:06:17;21.96;60.06
72128;DHT22;60000;51.030;7.024;2023-06-22T01:11:38;21.97;60.30
72128;DHT22;60000;51.030;7.024;2023-06-22T01:14:09;21.93;59.86
72128;DHT22;60000;51.030;7.024;2023-06-22T01:16:40;21.94;59.49
72128;DHT22;60000;51.030;7.024;2023-06-22T01:21:44;21.93;58.81
72128;DHT22;60000;51.030;7.024;2023-06-22T01:25:10;21.97;58.62
72128;DHT22;60000;51.030;7.024;2023-06-22T01:27:32;21.99;58.14
72128;DHT22;60000;51.030;7.024;2023-06-22T01:29:59;22.03;57.91
72128;DHT22;60000;51.030;7.024;2023-06-22T01:32:30;22.07;57.77
72128;DHT22;60000;51.030;7.024;2023-06-22T01:34:58;22.09;57.67
72128;DHT22;60000;51.030;7.024;2023-06-22T01:37:25;22.09;57.53
72128;DHT22;60000;51.030;7.024;2023-06-22T01:39:51;22.09;57.53
72128;DHT22;60000;51.030;7.024;2023-06-22T01:42:16;22.10;57.47
72128;DHT22;60000;51.030;7.024;2023-06-22T01:44:42;22.10;57.54
72128;DHT22;60000;51.030;7.024;2023-06-22T01:47:08;22.07;57.78
72128;DHT22;60000;51.030;7.024;2023-06-22T01:49:33;22.09;57.48
72128;DHT22;60000;51.030;7.024;2023-06-22T01:51:59;22.06;57.43
72128;DHT22;60000;51.030;7.024;2023-06-22T01:54:24;22.04;57.36
72128;DHT22;60000;51.030;7.024;2023-06-22T01:56:49;22.04;57.41
72128;DHT22;60000;51.030;7.024;2023-06-22T01:59:25;22.04;57.56
72128;DHT22;60000;51.030;7.024;2023-06-22T02:02:05;22.01;57.56
72128;DHT22;60000;51.030;7.024;2023-06-22T02:04:39;21.97;57.53
72128;DHT22;60000;51.030;7.024;2023-06-22T02:07:13;21.97;57.60
72128;DHT22;60000;51.030;7.024;2023-06-22T02:09:40;21.93;57.62
72128;DHT22;60000;51.030;7.024;2023-06-22T02:12:08;21.92;57.61
72128;DHT22;60000;51.030;7.024;2023-06-22T02:14:36;21.89;57.69
72128;DHT22;60000;51.030;7.024;2023-06-22T02:17:02;21.90;57.60
72128;DHT22;60000;51.030;7.024;2023-06-22T02:19:27;21.88;57.68
72128;DHT22;60000;51.030;7.024;2023-06-22T02:21:53;21.79;57.59
72128;DHT22;60000;51.030;7.024;2023-06-22T02:24:18;21.79;57.84
72128;DHT22;60000;51.030;7.024;2023-06-22T02:26:43;21.78;58.22
72128;DHT22;60000;51.030;7.024;2023-06-22T02:29:10;21.73;58.16
72128;DHT22;60000;51.030;7.024;2023-06-22T02:31:36;21.67;58.32
72128;DHT22;60000;51.030;7.024;2023-06-22T02:34:01;21.69;58.23
72128;DHT22;60000;51.030;7.024;2023-06-22T02:36:26;21.63;58.56
72128;DHT22;60000;51.030;7.024;2023-06-22T02:38:53;21.61;58.44
72128;DHT22;60000;51.030;7.024;2023-06-22T02:41:19;21.58;58.55
72128;DHT22;60000;51.030;7.024;2023-06-22T02:43:47;21.52;59.11
72128;DHT22;60000;51.030;7.024;2023-06-22T02:46:13;21.52;59.45
72128;DHT22;60000;51.030;7.024;2023-06-22T02:48:41;21.49;59.56
72128;DHT22;60000;51.030;7.024;2023-06-22T02:51:07;21.48;59.64
72128;DHT22;60000;51.030;7.024;2023-06-22T02:53:33;21.45;59.98
72128;DHT22;60000;51.030;7.024;2023-06-22T02:55:58;21.41;59.91
72128;DHT22;60000;51.030;7.024;2023-06-22T02:58:23;21.41;60.43
72128;DHT22;60000;51.030;7.024;2023-06-22T03:00:49;21.38;60.27
72128;DHT22;60000;51.030;7.024;2023-06-22T03:03:18;21.37;60.51
72128;DHT22;60000;51.030;7.024;2023-06-22T03:05:44;21.35;60.07
72128;DHT22;60000;51.030;7.024;2023-06-22T03:08:09;21.32;60.53
72128;DHT22;60000;51.030;7.024;2023-06-22T03:10:34;21.27;60.66
72128;DHT22;60000;51.030;7.024;2023-06-22T03:12:59;21.30;60.77
72128;DHT22;60000;51.030;7.024;2023-06-22T03:15:25;21.21;60.93
72128;DHT22;60000;51.030;7.024;2023-06-22T03:17:51;21.17;60.73
72128;DHT22;60000;51.030;7.024;2023-06-22T03:20:16;21.14;60.90
72128;DHT22;60000;51.030;7.024;2023-06-22T03:22:41;21.11;61.16
72128;DHT22;60000;51.030;7.024;2023-06-22T03:25:08;21.10;61.12
72128;DHT22;60000;51.030;7.024;2023-06-22T03:27:43;21.07;61.28
72128;DHT22;60000;51.030;7.024;2023-06-22T03:30:13;21.05;61.15
72128;DHT22;60000;51.030;7.024;2023-06-22T03:32:38;21.07;61.56
72128;DHT22;60000;51.030;7.024;2023-06-22T03:35:04;21.05;61.83
72128;DHT22;60000;51.030;7.024;2023-06-22T03:37:31;21.03;61.52
72128;DHT22;60000;51.030;7.024;2023-06-22T03:39:56;21.03;62.05
72128;DHT22;60000;51.030;7.024;2023-06-22T03:42:22;21.04;62.77
72128;DHT22;60000;51.030;7.024;2023-06-22T03:44:47;21.04;63.41
72128;DHT22;60000;51.030;7.024;2023-06-22T03:47:13;21.04;63.50
72128;DHT22;60000;51.030;7.024;2023-06-22T03:49:38;21.04;63.76
72128;DHT22;60000;51.030;7.024;2023-06-22T03:52:04;21.04;63.82
72128;DHT22;60000;51.030;7.024;2023-06-22T03:54:30;21.01;63.48
72128;DHT22;60000;51.030;7.024;2023-06-22T03:56:58;21.01;63.66
72128;DHT22;60000;51.030;7.024;2023-06-22T03:59:23;21.01;63.71
72128;DHT22;60000;51.030;7.024;2023-06-22T04:01:49;21.01;63.92
72128;DHT22;60000;51.030;7.024;2023-06-22T04:04:15;21.00;63.53
72128;DHT22;60000;51.030;7.024;2023-06-22T04:06:40;21.01;64.21
72128;DHT22;60000;51.030;7.024;2023-06-22T04:09:06;21.01;64.55
72128;DHT22;60000;51.030;7.024;2023-06-22T04:11:31;21.03;64.08
72128;DHT22;60000;51.030;7.024;2023-06-22T04:13:57;21.04;64.19
72128;DHT22;60000;51.030;7.024;2023-06-22T04:16:22;21.04;64.07
72128;DHT22;60000;51.030;7.024;2023-06-22T04:18:47;21.08;64.17
72128;DHT22;60000;51.030;7.024;2023-06-22T04:21:13;21.11;64.31
72128;DHT22;60000;51.030;7.024;2023-06-22T04:23:38;21.15;63.76
72128;DHT22;60000;51.030;7.024;2023-06-22T04:26:04;21.21;64.01
72128;DHT22;60000;51.030;7.024;2023-06-22T04:28:29;21.28;63.79
72128;DHT22;60000;51.030;7.024;2023-06-22T04:30:54;21.35;63.50
72128;DHT22;60000;51.030;7.024;2023-06-22T04:33:23;21.41;64.01
72128;DHT22;60000;51.030;7.024;2023-06-22T04:35:48;21.43;64.00
72128;DHT22;60000;51.030;7.024;2023-06-22T04:38:14;21.46;63.82
72128;DHT22;60000;51.030;7.024;2023-06-22T04:40:39;21.51;63.97
72128;DHT22;60000;51.030;7.024;2023-06-22T04:43:05;21.49;64.17
72128;DHT22;60000;51.030;7.024;2023-06-22T04:45:32;21.51;63.87
72128;DHT22;60000;51.030;7.024;2023-06-22T04:47:57;21.56;63.80
72128;DHT22;60000;51.030;7.024;2023-06-22T04:50:23;21.61;63.52
72128;DHT22;60000;51.030;7.024;2023-06-22T04:52:48;21.65;63.24
72128;DHT22;60000;51.030;7.024;2023-06-22T04:55:14;21.72;63.31
72128;DHT22;60000;51.030;7.024;2023-06-22T04:57:44;21.78;63.58
72128;DHT22;60000;51.030;7.024;2023-06-22T05:00:10;21.82;63.58
72128;DHT22;60000;51.030;7.024;2023-06-22T05:02:39;21.89;64.03
72128;DHT22;60000;51.030;7.024;2023-06-22T05:05:04;21.86;64.00
72128;DHT22;60000;51.030;7.024;2023-06-22T05:07:34;21.89;64.34
72128;DHT22;60000;51.030;7.024;2023-06-22T05:10:03;21.90;64.11
72128;DHT22;60000;51.030;7.024;2023-06-22T05:12:29;21.92;64.51
72128;DHT22;60000;51.030;7.024;2023-06-22T05:14:55;21.90;64.30
72128;DHT22;60000;51.030;7.024;2023-06-22T05:17:20;21.90;64.62
72128;DHT22;60000;51.030;7.024;2023-06-22T05:19:46;21.90;63.87
72128;DHT22;60000;51.030;7.024;2023-06-22T05:22:16;21.90;63.87
72128;DHT22;60000;51.030;7.024;2023-06-22T05:24:42;21.93;63.84
72128;DHT22;60000;51.030;7.024;2023-06-22T05:27:08;21.96;63.99
72128;DHT22;60000;51.030;7.024;2023-06-22T05:29:33;21.99;64.15
72128;DHT22;60000;51.030;7.024;2023-06-22T05:31:58;21.99;64.46
72128;DHT22;60000;51.030;7.024;2023-06-22T05:34:24;22.03;65.40
72128;DHT22;60000;51.030;7.024;2023-06-22T05:36:49;22.03;65.55
72128;DHT22;60000;51.030;7.024;2023-06-22T05:39:15;22.01;65.81
72128;DHT22;60000;51.030;7.024;2023-06-22T05:41:41;21.97;65.55
72128;DHT22;60000;51.030;7.024;2023-06-22T05:44:06;22.00;65.53
72128;DHT22;60000;51.030;7.024;2023-06-22T05:46:32;22.07;65.78
72128;DHT22;60000;51.030;7.024;2023-06-22T05:48:57;22.16;66.20
72128;DHT22;60000;51.030;7.024;2023-06-22T05:51:22;22.17;65.67
72128;DHT22;60000;51.030;7.024;2023-06-22T05:53:48;22.23;65.47
72128;DHT22;60000;51.030;7.024;2023-06-22T05:56:15;22.30;65.38
72128;DHT22;60000;51.030;7.024;2023-06-22T05:58:41;22.37;65.55
72128;DHT22;60000;51.030;7.024;2023-06-22T06:01:06;22.44;65.28
72128;DHT22;60000;51.030;7.024;2023-06-22T06:03:31;22.54;65.78
72128;DHT22;60000;51.030;7.024;2023-06-22T06:05:57;22.65;65.60
72128;DHT22;60000;51.030;7.024;2023-06-22T06:08:22;22.78;66.09
72128;DHT22;60000;51.030;7.024;2023-06-22T06:10:47;22.88;66.10
72128;DHT22;60000;51.030;7.024;2023-06-22T06:13:13;23.00;65.82
72128;DHT22;60000;51.030;7.024;2023-06-22T06:15:38;23.16;65.90
72128;DHT22;60000;51.030;7.024;2023-06-22T06:18:04;23.29;65.31
72128;DHT22;60000;51.030;7.024;2023-06-22T06:20:31;23.42;65.25
72128;DHT22;60000;51.030;7.024;2023-06-22T06:22:56;23.63;65.15
72128;DHT22;60000;51.030;7.024;2023-06-22T06:25:22;24.04;64.68
72128;DHT22;60000;51.030;7.024;2023-06-22T06:27:49;24.39;64.08
72128;DHT22;60000;51.030;7.024;2023-06-22T06:30:16;24.82;63.38
72128;DHT22;60000;51.030;7.024;2023-06-22T06:32:42;25.27;61.73
72128;DHT22;60000;51.030;7.024;2023-06-22T06:35:09;25.71;60.64
72128;DHT22;60000;51.030;7.024;2023-06-22T06:37:39;26.19;58.61
72128;DHT22;60000;51.030;7.024;2023-06-22T06:40:06;26.71;58.12
72128;DHT22;60000;51.030;7.024;2023-06-22T06:42:35;27.15;55.85
72128;DHT22;60000;51.030;7.024;2023-06-22T06:45:03;27.26;55.82
72128;DHT22;60000;51.030;7.024;2023-06-22T06:47:28;27.18;54.15
72128;DHT22;60000;51.030;7.024;2023-06-22T06:49:54;27.11;55.43
72128;DHT22;60000;51.030;7.024;2023-06-22T06:52:19;27.03;55.38
72128;DHT22;60000;51.030;7.024;2023-06-22T06:54:45;27.11;55.36
72128;DHT22;60000;51.030;7.024;2023-06-22T06:57:10;27.23;56.61
72128;DHT22;60000;51.030;7.024;2023-06-22T06:59:38;27.50;56.77
72128;DHT22;60000;51.030;7.024;2023-06-22T07:02:04;27.86;54.95
72128;DHT22;60000;51.030;7.024;2023-06-22T07:04:30;28.12;54.48
72128;DHT22;60000;51.030;7.024;2023-06-22T07:06:55;28.28;53.24
72128;DHT22;60000;51.030;7.024;2023-06-22T07:09:20;28.34;52.14
72128;DHT22;60000;51.030;7.024;2023-06-22T07:11:46;28.17;51.64
72128;DHT22;60000;51.030;7.024;2023-06-22T07:14:11;28.02;52.18
72128;DHT22;60000;51.030;7.024;2023-06-22T07:16:36;28.10;52.86
72128;DHT22;60000;51.030;7.024;2023-06-22T07:19:02;28.10;52.38
72128;DHT22;60000;51.030;7.024;2023-06-22T07:21:27;27.88;52.47
72128;DHT22;60000;51.030;7.024;2023-06-22T07:23:53;27.71;52.75
72128;DHT22;60000;51.030;7.024;2023-06-22T07:26:19;27.80;53.80
72128;DHT22;60000;51.030;7.024;2023-06-22T07:28:44;28.27;53.89
72128;DHT22;60000;51.030;7.024;2023-06-22T07:31:10;28.82;53.23
72128;DHT22;60000;51.030;7.024;2023-06-22T07:33:35;29.31;51.66
72128;DHT22;60000;51.030;7.024;2023-06-22T07:36:00;29.50;49.77
72128;DHT22;60000;51.030;7.024;2023-06-22T07:38:26;29.26;48.77
72128;DHT22;60000;51.030;7.024;2023-06-22T07:40:51;29.17;50.24
72128;DHT22;60000;51.030;7.024;2023-06-22T07:43:18;28.93;51.38
72128;DHT22;60000;51.030;7.024;2023-06-22T07:45:51;28.92;50.08
72128;DHT22;60000;51.030;7.024;2023-06-22T07:48:20;29.18;51.25
72128;DHT22;60000;51.030;7.024;2023-06-22T07:50:46;28.96;49.49
72128;DHT22;60000;51.030;7.024;2023-06-22T07:53:12;28.89;49.95
72128;DHT22;60000;51.030;7.024;2023-06-22T07:55:37;28.70;50.04
72128;DHT22;60000;51.030;7.024;2023-06-22T07:58:02;28.58;51.13
72128;DHT22;60000;51.030;7.024;2023-06-22T08:00:27;28.80;51.97
72128;DHT22;60000;51.030;7.024;2023-06-22T08:02:53;29.38;51.27
72128;DHT22;60000;51.030;7.024;2023-06-22T08:05:18;29.68;48.36
72128;DHT22;60000;51.030;7.024;2023-06-22T08:07:44;30.12;49.24
72128;DHT22;60000;51.030;7.024;2023-06-22T08:10:13;30.70;47.88
72128;DHT22;60000;51.030;7.024;2023-06-22T08:12:39;31.08;45.15
72128;DHT22;60000;51.030;7.024;2023-06-22T08:15:05;31.11;44.42
72128;DHT22;60000;51.030;7.024;2023-06-22T08:17:31;31.43;45.56
72128;DHT22;60000;51.030;7.024;2023-06-22T08:19:56;31.90;44.96
72128;DHT22;60000;51.030;7.024;2023-06-22T08:22:22;32.07;42.40
72128;DHT22;60000;51.030;7.024;2023-06-22T08:24:47;32.45;41.87
72128;DHT22;60000;51.030;7.024;2023-06-22T08:27:13;32.71;42.07
72128;DHT22;60000;51.030;7.024;2023-06-22T08:29:40;32.80;42.53
72128;DHT22;60000;51.030;7.024;2023-06-22T08:32:10;32.90;42.59
72128;DHT22;60000;51.030;7.024;2023-06-22T08:34:36;33.20;41.74
72128;DHT22;60000;51.030;7.024;2023-06-22T08:37:01;33.56;41.87
72128;DHT22;60000;51.030;7.024;2023-06-22T08:39:32;33.85;41.33
72128;DHT22;60000;51.030;7.024;2023-06-22T08:41:57;34.04;40.34
72128;DHT22;60000;51.030;7.024;2023-06-22T08:44:22;34.26;40.07
72128;DHT22;60000;51.030;7.024;2023-06-22T08:46:48;34.49;39.67
72128;DHT22;60000;51.030;7.024;2023-06-22T08:49:13;34.60;40.22
72128;DHT22;60000;51.030;7.024;2023-06-22T08:51:38;34.72;39.14
72128;DHT22;60000;51.030;7.024;2023-06-22T08:54:04;34.86;39.62
72128;DHT22;60000;51.030;7.024;2023-06-22T08:56:30;35.10;39.76
72128;DHT22;60000;51.030;7.024;2023-06-22T08:58:55;35.03;38.56
72128;DHT22;60000;51.030;7.024;2023-06-22T09:01:22;34.74;38.68
72128;DHT22;60000;51.030;7.024;2023-06-22T09:03:47;34.36;39.70
72128;DHT22;60000;51.030;7.024;2023-06-22T09:06:20;33.81;40.75
72128;DHT22;60000;51.030;7.024;2023-06-22T09:08:47;33.60;41.86
72128;DHT22;60000;51.030;7.024;2023-06-22T09:11:12;33.49;41.49
72128;DHT22;60000;51.030;7.024;2023-06-22T09:13:37;33.33;41.38
72128;DHT22;60000;51.030;7.024;2023-06-22T09:16:03;33.23;42.39
72128;DHT22;60000;51.030;7.024;2023-06-22T09:18:28;33.22;42.21
72128;DHT22;60000;51.030;7.024;2023-06-22T09:20:54;33.23;42.08
72128;DHT22;60000;51.030;7.024;2023-06-22T09:23:19;33.08;41.26
72128;DHT22;60000;51.030;7.024;2023-06-22T09:25:44;33.00;41.85
72128;DHT22;60000;51.030;7.024;2023-06-22T09:28:11;33.00;42.40
72128;DHT22;60000;51.030;7.024;2023-06-22T09:30:37;33.16;41.51
72128;DHT22;60000;51.030;7.024;2023-06-22T09:33:02;33.37;41.43
72128;DHT22;60000;51.030;7.024;2023-06-22T09:35:27;33.50;40.55
72128;DHT22;60000;51.030;7.024;2023-06-22T09:37:53;33.45;41.90
72128;DHT22;60000;51.030;7.024;2023-06-22T09:40:18;33.25;40.86
72128;DHT22;60000;51.030;7.024;2023-06-22T09:42:44;33.12;40.92
72128;DHT22;60000;51.030;7.024;2023-06-22T09:45:09;33.06;40.91
72128;DHT22;60000;51.030;7.024;2023-06-22T09:47:34;33.12;41.54
72128;DHT22;60000;51.030;7.024;2023-06-22T09:50:00;33.08;41.41
72128;DHT22;60000;51.030;7.024;2023-06-22T09:52:25;33.19;41.49
72128;DHT22;60000;51.030;7.024;2023-06-22T09:54:51;33.36;40.79
72128;DHT22;60000;51.030;7.024;2023-06-22T09:57:16;33.31;40.29
72128;DHT22;60000;51.030;7.024;2023-06-22T09:59:42;33.22;40.82
72128;DHT22;60000;51.030;7.024;2023-06-22T10:02:07;33.12;41.08
72128;DHT22;60000;51.030;7.024;2023-06-22T10:04:34;32.98;41.89
72128;DHT22;60000;51.030;7.024;2023-06-22T10:06:59;32.89;41.59
72128;DHT22;60000;51.030;7.024;2023-06-22T10:09:25;32.69;41.61
72128;DHT22;60000;51.030;7.024;2023-06-22T10:11:50;32.47;42.44
72128;DHT22;60000;51.030;7.024;2023-06-22T10:14:15;32.25;42.41
72128;DHT22;60000;51.030;7.024;2023-06-22T10:16:41;31.98;43.09
72128;DHT22;60000;51.030;7.024;2023-06-22T10:19:07;31.70;43.18
72128;DHT22;60000;51.030;7.024;2023-06-22T10:21:32;31.32;43.66
72128;DHT22;60000;51.030;7.024;2023-06-22T10:23:58;31.08;43.96
72128;DHT22;60000;51.030;7.024;2023-06-22T10:26:24;30.81;46.91
72128;DHT22;60000;51.030;7.024;2023-06-22T10:28:50;30.54;47.58
72128;DHT22;60000;51.030;7.024;2023-06-22T10:31:15;30.34;49.41
72128;DHT22;60000;51.030;7.024;2023-06-22T10:33:41;30.15;50.35
72128;DHT22;60000;51.030;7.024;2023-06-22T10:36:09;29.96;52.68
72128;DHT22;60000;51.030;7.024;2023-06-22T10:38:34;29.57;51.65
72128;DHT22;60000;51.030;7.024;2023-06-22T10:41:00;29.30;53.35
72128;DHT22;60000;51.030;7.024;2023-06-22T10:43:25;29.04;55.48
72128;DHT22;60000;51.030;7.024;2023-06-22T10:45:50;28.77;56.93
72128;DHT22;60000;51.030;7.024;2023-06-22T10:48:15;28.49;59.09
72128;DHT22;60000;51.030;7.024;2023-06-22T10:50:41;28.11;60.54
72128;DHT22;60000;51.030;7.024;2023-06-22T10:53:06;27.60;62.26
72128;DHT22;60000;51.030;7.024;2023-06-22T10:55:31;27.30;65.94
72128;DHT22;60000;51.030;7.024;2023-06-22T10:57:57;26.92;66.31
72128;DHT22;60000;51.030;7.024;2023-06-22T11:00:22;26.60;67.39
72128;DHT22;60000;51.030;7.024;2023-06-22T11:02:47;26.32;69.32
72128;DHT22;60000;51.030;7.024;2023-06-22T11:05:12;26.04;70.68
72128;DHT22;60000;51.030;7.024;2023-06-22T11:07:42;25.72;72.10
72128;DHT22;60000;51.030;7.024;2023-06-22T11:10:08;25.48;73.28
72128;DHT22;60000;51.030;7.024;2023-06-22T11:12:33;25.25;74.50
72128;DHT22;60000;51.030;7.024;2023-06-22T11:14:59;25.07;75.45
72128;DHT22;60000;51.030;7.024;2023-06-22T11:17:24;24.90;76.28
72128;DHT22;60000;51.030;7.024;2023-06-22T11:19:50;24.79;76.75
72128;DHT22;60000;51.030;7.024;2023-06-22T11:22:15;24.62;76.92
72128;DHT22;60000;51.030;7.024;2023-06-22T11:24:41;24.48;76.87
72128;DHT22;60000;51.030;7.024;2023-06-22T11:27:06;24.24;77.41
72128;DHT22;60000;51.030;7.024;2023-06-22T11:29:32;24.24;79.37
72128;DHT22;60000;51.030;7.024;2023-06-22T11:31:57;24.22;78.89
72128;DHT22;60000;51.030;7.024;2023-06-22T11:34:22;24.25;78.68
72128;DHT22;60000;51.030;7.024;2023-06-22T11:36:48;24.38;80.57
72128;DHT22;60000;51.030;7.024;2023-06-22T11:39:13;24.51;80.14
72128;DHT22;60000;51.030;7.024;2023-06-22T11:41:40;24.42;78.51
72128;DHT22;60000;51.030;7.024;2023-06-22T11:44:05;24.35;79.37
72128;DHT22;60000;51.030;7.024;2023-06-22T11:46:32;24.42;79.82
72128;DHT22;60000;51.030;7.024;2023-06-22T11:48:57;24.40;79.56
72128;DHT22;60000;51.030;7.024;2023-06-22T11:51:22;24.40;79.49
72128;DHT22;60000;51.030;7.024;2023-06-22T11:53:48;24.22;78.89
72128;DHT22;60000;51.030;7.024;2023-06-22T11:56:13;24.09;79.82
72128;DHT22;60000;51.030;7.024;2023-06-22T11:58:38;23.97;79.96
72128;DHT22;60000;51.030;7.024;2023-06-22T12:01:04;24.00;81.27
72128;DHT22;60000;51.030;7.024;2023-06-22T12:03:30;24.09;81.59
72128;DHT22;60000;51.030;7.024;2023-06-22T12:05:55;24.38;82.52
72128;DHT22;60000;51.030;7.024;2023-06-22T12:08:21;24.65;82.20
72128;DHT22;60000;51.030;7.024;2023-06-22T12:10:47;24.75;80.43
72128;DHT22;60000;51.030;7.024;2023-06-22T12:13:12;24.80;78.95
72128;DHT22;60000;51.030;7.024;2023-06-22T12:15:37;24.98;79.51
72128;DHT22;60000;51.030;7.024;2023-06-22T12:18:03;25.44;79.99
72128;DHT22;60000;51.030;7.024;2023-06-22T12:20:28;25.75;79.09
72128;DHT22;60000;51.030;7.024;2023-06-22T12:22:54;25.79;76.69
72128;DHT22;60000;51.030;7.024;2023-06-22T12:25:21;25.88;76.38
72128;DHT22;60000;51.030;7.024;2023-06-22T12:27:47;25.89;75.65
72128;DHT22;60000;51.030;7.024;2023-06-22T12:30:12;25.79;74.33
72128;DHT22;60000;51.030;7.024;2023-06-22T12:32:37;25.64;74.14
72128;DHT22;60000;51.030;7.024;2023-06-22T12:35:03;25.52;73.04
72128;DHT22;60000;51.030;7.024;2023-06-22T12:37:29;25.49;74.12
72128;DHT22;60000;51.030;7.024;2023-06-22T12:39:56;25.69;75.31
72128;DHT22;60000;51.030;7.024;2023-06-22T12:42:22;26.13;73.65
72128;DHT22;60000;51.030;7.024;2023-06-22T12:44:47;26.65;73.62
72128;DHT22;60000;51.030;7.024;2023-06-22T12:47:12;27.15;72.62
72128;DHT22;60000;51.030;7.024;2023-06-22T12:49:38;27.47;71.09
72128;DHT22;60000;51.030;7.024;2023-06-22T12:52:08;27.40;67.95
72128;DHT22;60000;51.030;7.024;2023-06-22T12:54:34;27.49;68.53
72128;DHT22;60000;51.030;7.024;2023-06-22T12:56:59;27.51;68.58
72128;DHT22;60000;51.030;7.024;2023-06-22T12:59:25;27.69;68.01
72128;DHT22;60000;51.030;7.024;2023-06-22T13:01:50;27.84;66.78
72128;DHT22;60000;51.030;7.024;2023-06-22T13:04:15;27.63;65.04
72128;DHT22;60000;51.030;7.024;2023-06-22T13:06:47;27.67;66.13
72128;DHT22;60000;51.030;7.024;2023-06-22T13:09:13;27.86;65.90
72128;DHT22;60000;51.030;7.024;2023-06-22T13:11:38;28.07;65.31
72128;DHT22;60000;51.030;7.024;2023-06-22T13:14:04;28.11;64.63
72128;DHT22;60000;51.030;7.024;2023-06-22T13:16:29;28.05;64.27
72128;DHT22;60000;51.030;7.024;2023-06-22T13:18:55;28.05;64.21
72128;DHT22;60000;51.030;7.024;2023-06-22T13:21:20;28.14;64.30
72128;DHT22;60000;51.030;7.024;2023-06-22T13:23:45;28.45;64.88
72128;DHT22;60000;51.030;7.024;2023-06-22T13:26:11;28.63;63.81
72128;DHT22;60000;51.030;7.024;2023-06-22T13:28:36;28.56;62.73
72128;DHT22;60000;51.030;7.024;2023-06-22T13:31:01;28.72;62.30
72128;DHT22;60000;51.030;7.024;2023-06-22T13:33:27;28.68;62.37
72128;DHT22;60000;51.030;7.024;2023-06-22T13:35:52;28.65;62.05
72128;DHT22;60000;51.030;7.024;2023-06-22T13:38:17;28.65;61.59
72128;DHT22;60000;51.030;7.024;2023-06-22T13:40:43;28.62;61.03
72128;DHT22;60000;51.030;7.024;2023-06-22T13:43:08;28.58;59.60
72128;DHT22;60000;51.030;7.024;2023-06-22T13:45:34;28.45;60.14
72128;DHT22;60000;51.030;7.024;2023-06-22T13:47:59;28.49;60.42
72128;DHT22;60000;51.030;7.024;2023-06-22T13:50:24;28.60;60.43
72128;DHT22;60000;51.030;7.024;2023-06-22T13:52:50;28.60;60.42
72128;DHT22;60000;51.030;7.024;2023-06-22T13:55:15;28.68;60.20
72128;DHT22;60000;51.030;7.024;2023-06-22T13:57:41;28.76;59.80
72128;DHT22;60000;51.030;7.024;2023-06-22T14:00:07;28.80;60.11
72128;DHT22;60000;51.030;7.024;2023-06-22T14:02:36;28.96;59.87
72128;DHT22;60000;51.030;7.024;2023-06-22T14:05:01;28.97;59.76
72128;DHT22;60000;51.030;7.024;2023-06-22T14:07:27;28.93;59.89
72128;DHT22;60000;51.030;7.024;2023-06-22T14:09:52;28.93;60.94
72128;DHT22;60000;51.030;7.024;2023-06-22T14:12:18;29.02;58.24
72128;DHT22;60000;51.030;7.024;2023-06-22T14:14:44;28.93;58.69
72128;DHT22;60000;51.030;7.024;2023-06-22T14:17:09;28.89;58.57
72128;DHT22;60000;51.030;7.024;2023-06-22T14:19:35;28.77;58.37
72128;DHT22;60000;51.030;7.024;2023-06-22T14:22:01;28.70;58.52
72128;DHT22;60000;51.030;7.024;2023-06-22T14:24:26;28.70;59.80
72128;DHT22;60000;51.030;7.024;2023-06-22T14:26:52;28.56;58.47
72128;DHT22;60000;51.030;7.024;2023-06-22T14:29:17;28.27;58.86
72128;DHT22;60000;51.030;7.024;2023-06-22T14:31:45;28.07;59.88
72128;DHT22;60000;51.030;7.024;2023-06-22T14:34:11;27.88;60.48
72128;DHT22;60000;51.030;7.024;2023-06-22T14:36:36;27.80;60.95
72128;DHT22;60000;51.030;7.024;2023-06-22T14:39:01;27.63;60.44
72128;DHT22;60000;51.030;7.024;2023-06-22T14:41:27;27.51;61.29
72128;DHT22;60000;51.030;7.024;2023-06-22T14:43:52;27.38;61.42
72128;DHT22;60000;51.030;7.024;2023-06-22T14:46:18;27.29;61.91
72128;DHT22;60000;51.030;7.024;2023-06-22T14:48:44;27.23;62.37
72128;DHT22;60000;51.030;7.024;2023-06-22T14:51:10;27.08;63.69
72128;DHT22;60000;51.030;7.024;2023-06-22T14:53:36;26.94;64.62
72128;DHT22;60000;51.030;7.024;2023-06-22T14:56:02;26.65;64.63
72128;DHT22;60000;51.030;7.024;2023-06-22T14:58:30;26.51;66.28
72128;DHT22;60000;51.030;7.024;2023-06-22T15:00:58;26.34;66.99
72128;DHT22;60000;51.030;7.024;2023-06-22T15:03:23;26.19;67.90
72128;DHT22;60000;51.030;7.024;2023-06-22T15:05:52;26.04;69.38
72128;DHT22;60000;51.030;7.024;2023-06-22T15:08:18;25.88;70.55
72128;DHT22;60000;51.030;7.024;2023-06-22T15:10:44;25.71;72.76
72128;DHT22;60000;51.030;7.024;2023-06-22T15:13:09;25.42;73.80
72128;DHT22;60000;51.030;7.024;2023-06-22T15:15:34;25.18;75.49
72128;DHT22;60000;51.030;7.024;2023-06-22T15:18:00;24.88;75.84
72128;DHT22;60000;51.030;7.024;2023-06-22T15:20:26;24.57;77.02
72128;DHT22;60000;51.030;7.024;2023-06-22T15:22:51;24.33;77.74
72128;DHT22;60000;51.030;7.024;2023-06-22T15:25:16;24.18;78.38
72128;DHT22;60000;51.030;7.024;2023-06-22T15:27:41;24.09;79.98
72128;DHT22;60000;51.030;7.024;2023-06-22T15:30:07;23.94;79.76
72128;DHT22;60000;51.030;7.024;2023-06-22T15:32:32;23.85;80.32
72128;DHT22;60000;51.030;7.024;2023-06-22T15:34:58;23.73;81.13
72128;DHT22;60000;51.030;7.024;2023-06-22T15:37:23;23.64;81.81
72128;DHT22;60000;51.030;7.024;2023-06-22T15:39:48;23.57;81.98
72128;DHT22;60000;51.030;7.024;2023-06-22T15:42:14;23.50;81.68
72128;DHT22;60000;51.030;7.024;2023-06-22T15:44:39;23.46;82.15
72128;DHT22;60000;51.030;7.024;2023-06-22T15:47:05;23.36;82.30
72128;DHT22;60000;51.030;7.024;2023-06-22T15:49:30;23.31;82.33
72128;DHT22;60000;51.030;7.024;2023-06-22T15:51:55;23.26;82.34
72128;DHT22;60000;51.030;7.024;2023-06-22T15:54:21;23.24;82.88
72128;DHT22;60000;51.030;7.024;2023-06-22T15:56:46;23.23;83.09
72128;DHT22;60000;51.030;7.024;2023-06-22T15:59:11;23.20;83.18
72128;DHT22;60000;51.030;7.024;2023-06-22T16:01:37;23.18;83.29
72128;DHT22;60000;51.030;7.024;2023-06-22T16:04:02;23.13;83.22
72128;DHT22;60000;51.030;7.024;2023-06-22T16:06:28;23.09;83.21
72128;DHT22;60000;51.030;7.024;2023-06-22T16:08:54;23.05;83.37
72128;DHT22;60000;51.030;7.024;2023-06-22T16:11:19;23.00;83.34
72128;DHT22;60000;51.030;7.024;2023-06-22T16:13:45;23.00;83.61
72128;DHT22;60000;51.030;7.024;2023-06-22T16:16:11;22.98;83.50
72128;DHT22;60000;51.030;7.024;2023-06-22T16:18:36;22.92;83.09
72128;DHT22;60000;51.030;7.024;2023-06-22T16:21:02;22.84;82.63
72128;DHT22;60000;51.030;7.024;2023-06-22T16:23:29;22.88;82.32
72128;DHT22;60000;51.030;7.024;2023-06-22T16:25:54;22.87;82.71
72128;DHT22;60000;51.030;7.024;2023-06-22T16:28:19;22.84;83.13
72128;DHT22;60000;51.030;7.024;2023-06-22T16:30:45;22.84;83.51